Time;durP1;ratioP1;P1;durP2;ratioP2;P2;SDS_P1;SDS_P2;PMS_P1;PMS_P2;Temp;Humidity;BMP_temperature;BMP_pressure;BME280_temperature;BME280_humidity;BME280_pressure;Samples;Min_cycle;Max_cycle;Signal;HPM_P1;HPM_P2
2021/12/07 00:01:47;;;;;;;39.73;18.80;;;;;;;-2.28;88.46;100477.95;1659436;86;26507;-80
2021/12/07 00:04:15;;;;;;;41.23;19.82;;;;;;;-2.29;88.30;100478.06;1659366;86;25302;-79
2021/12/07 00:06:42;;;;;;;40.78;19.15;;;;;;;-2.30;88.30;100483.78;1651972;86;27622;-81
2021/12/07 00:09:13;;;;;;;40.52;18.82;;;;;;;-2.29;88.24;100488.09;1656519;86;25826;-80
2021/12/07 00:11:40;;;;;;;41.08;19.20;;;;;;;-2.29;88.22;100495.12;1658476;86;25936;-80
2021/12/07 00:14:13;;;;;;;40.15;18.55;;;;;;;-2.28;88.24;100492.38;1659029;86;26702;-80
2021/12/07 00:16:43;;;;;;;44.50;19.85;;;;;;;-2.25;88.27;100494.80;1619594;88;25847;-79
2021/12/07 00:19:11;;;;;;;42.50;20.52;;;;;;;-2.24;88.33;100487.27;1659474;86;27426;-79
2021/12/07 00:21:40;;;;;;;44.93;20.20;;;;;;;-2.23;88.44;100489.44;1659569;86;25913;-80
2021/12/07 00:24:08;;;;;;;41.73;19.17;;;;;;;-2.21;88.60;100492.31;1655985;86;25805;-80
2021/12/07 00:26:35;;;;;;;37.53;20.62;;;;;;;-2.16;88.78;100496.75;1658244;85;26038;-79
2021/12/07 00:29:03;;;;;;;43.87;20.25;;;;;;;-2.12;88.80;100492.98;1659398;86;25754;-80
2021/12/07 00:31:39;;;;;;;46.65;22.07;;;;;;;-2.10;88.74;100494.18;1659322;86;27482;-79
2021/12/07 00:36:42;;;;;;;37.90;20.12;;;;;;;-2.10;88.54;100498.96;1660240;86;25953;-81
2021/12/07 00:39:12;;;;;;;41.70;18.90;;;;;;;-2.14;88.27;100504.53;1660093;86;26567;-79
2021/12/07 00:41:39;;;;;;;43.40;20.05;;;;;;;-2.23;88.24;100511.27;1659533;86;33581;-79
2021/12/07 00:44:06;;;;;;;46.65;20.27;;;;;;;-2.27;88.56;100507.66;1652031;86;27456;-79
2021/12/07 00:46:33;;;;;;;43.42;19.65;;;;;;;-2.27;88.68;100515.52;1658823;86;25920;-80
2021/12/07 00:49:01;;;;;;;38.40;19.62;;;;;;;-2.30;88.73;100512.63;1657095;86;26150;-79
2021/12/07 00:51:28;;;;;;;39.78;18.17;;;;;;;-2.31;88.86;100514.91;1653644;86;25921;-80
2021/12/07 00:53:55;;;;;;;37.15;17.12;;;;;;;-2.30;88.90;100511.79;1656877;86;25922;-79
2021/12/07 00:56:22;;;;;;;45.12;20.43;;;;;;;-2.33;88.82;100516.77;1656981;86;27457;-80
2021/12/07 00:58:51;;;;;;;46.60;21.68;;;;;;;-2.41;88.78;100521.72;1653804;86;25311;-80
2021/12/07 01:01:20;;;;;;;41.37;19.17;;;;;;;-2.44;89.05;100527.20;1657248;86;25428;-80
2021/12/07 01:03:49;;;;;;;43.48;19.17;;;;;;;-2.44;89.21;100533.75;1656563;85;25838;-80
2021/12/07 01:06:25;;;;;;;44.25;18.60;;;;;;;-2.49;89.05;100529.28;1657210;86;25847;-80
2021/12/07 01:25:30;;;;;;;42.90;20.68;;;;;;;-2.51;89.95;100527.24;1656079;86;26006;-79
2021/12/07 01:27:58;;;;;;;45.20;21.10;;;;;;;-2.51;89.95;100527.24;1656964;86;26467;-80
2021/12/07 01:30:37;;;;;;;45.83;19.70;;;;;;;-2.49;89.88;100524.04;1657107;86;26274;-80
2021/12/07 01:35:59;;;;;;;47.35;21.80;;;;;;;-2.42;90.03;100525.30;1656694;86;27519;-79
2021/12/07 01:38:23;;;;;;;40.43;19.77;;;;;;;-2.38;90.02;100525.45;1650696;86;25877;-78
2021/12/07 01:43:33;;;;;;;47.90;22.60;;;;;;;-2.38;89.93;100524.14;1657118;86;25980;-79
2021/12/07 01:49:39;;;;;;;46.73;22.85;;;;;;;-2.25;90.21;100534.15;1657511;86;27477;-79
2021/12/07 02:01:28;;;;;;;51.63;23.40;;;;;;;-2.17;89.90;100529.66;1660701;86;28290;-80
2021/12/07 02:03:55;;;;;;;47.13;20.65;;;;;;;-2.17;89.98;100525.26;1648655;85;25843;-79
2021/12/07 02:06:21;;;;;;;46.58;21.87;;;;;;;-2.16;89.88;100526.92;1661297;86;25278;-80
2021/12/07 02:08:47;;;;;;;48.73;22.13;;;;;;;-2.17;89.75;100520.48;1659188;86;25839;-79
2021/12/07 02:11:14;;;;;;;49.35;24.50;;;;;;;-2.17;89.79;100528.34;1661878;86;26036;-80
2021/12/07 02:16:10;;;;;;;41.13;20.20;;;;;;;-2.16;89.88;100520.36;1661367;86;25911;-80
2021/12/07 02:18:38;;;;;;;45.98;20.48;;;;;;;-2.16;89.88;100526.92;1659924;84;25867;-79
2021/12/07 02:21:26;;;;;;;52.10;23.30;;;;;;;-2.18;89.89;100522.75;1661607;86;25806;-79
2021/12/07 02:23:56;;;;;;;44.60;21.77;;;;;;;-2.21;89.83;100522.48;1658558;86;25354;-80
2021/12/07 02:26:23;;;;;;;51.53;23.85;;;;;;;-2.23;89.91;100523.53;1661531;86;28298;-80
2021/12/07 02:28:52;;;;;;;48.68;22.22;;;;;;;-2.23;89.95;100523.53;1659209;86;25763;-80
2021/12/07 02:31:20;;;;;;;52.67;24.52;;;;;;;-2.25;89.80;100526.28;1661885;85;25827;-80
2021/12/07 02:33:47;;;;;;;48.63;22.77;;;;;;;-2.27;89.81;100538.66;1658976;86;25853;-80
2021/12/07 02:36:13;;;;;;;54.67;23.77;;;;;;;-2.27;89.94;100537.35;1648134;85;25770;-80
2021/12/07 02:38:39;;;;;;;48.23;21.62;;;;;;;-2.26;89.83;100540.79;1659249;85;27462;-79
2021/12/07 02:41:06;;;;;;;55.28;23.67;;;;;;;-2.27;89.90;100539.98;1666866;85;25986;-80
2021/12/07 02:43:34;;;;;;;62.62;24.27;;;;;;;-2.26;89.94;100528.52;1666878;85;25827;-79
2021/12/07 02:46:01;;;;;;;52.50;22.22;;;;;;;-2.25;89.81;100524.13;1663572;85;25772;-79
2021/12/07 02:48:27;;;;;;;49.48;22.98;;;;;;;-2.27;89.76;100518.14;1659320;85;26534;-80
2021/12/07 02:50:56;;;;;;;51.75;22.35;;;;;;;-2.28;89.81;100510.73;1634164;86;28328;-79
2021/12/07 02:53:27;;;;;;;53.45;24.98;;;;;;;-2.28;89.79;100506.80;1653259;86;25943;-79
2021/12/07 02:55:57;;;;;;;47.40;20.43;;;;;;;-2.28;89.88;100508.58;1653299;86;25995;-79
2021/12/07 02:58:25;;;;;;;50.80;21.82;;;;;;;-2.30;89.81;100513.95;1647008;86;25786;-79
2021/12/07 03:01:01;;;;;;;51.00;24.20;;;;;;;-2.29;89.91;100516.95;1653180;86;25807;-80
2021/12/07 03:03:26;;;;;;;55.70;23.15;;;;;;;-2.26;90.01;100523.73;1646023;86;27425;-79
2021/12/07 03:06:08;;;;;;;57.03;23.73;;;;;;;-2.21;90.14;100532.14;1653279;86;25756;-79
2021/12/07 03:27:58;;;;;;;49.70;22.52;;;;;;;-2.27;89.76;100533.88;1656221;85;25945;-80
2021/12/07 03:30:26;;;;;;;59.75;24.25;;;;;;;-2.29;89.82;100520.88;1659180;86;28319;-79
2021/12/07 03:32:52;;;;;;;60.25;23.25;;;;;;;-2.31;89.79;100521.47;1657524;86;25935;-80
2021/12/07 03:35:20;;;;;;;46.60;19.77;;;;;;;-2.36;89.87;100509.13;1659141;86;26504;-79
2021/12/07 03:37:47;;;;;;;54.38;22.80;;;;;;;-2.37;89.89;100510.91;1653398;86;25770;-79
2021/12/07 03:40:16;;;;;;;57.03;23.10;;;;;;;-2.35;89.90;100523.44;1657240;86;25281;-80
2021/12/07 03:42:42;;;;;;;53.65;23.47;;;;;;;-2.33;90.09;100521.20;1657275;86;27544;-79
2021/12/07 03:45:11;;;;;;;58.70;23.87;;;;;;;-2.32;90.07;100521.55;1658924;85;26008;-79
2021/12/07 03:47:39;;;;;;;58.25;24.25;;;;;;;-2.31;90.10;100523.24;1655659;86;25822;-79
2021/12/07 03:50:08;;;;;;;50.05;22.02;;;;;;;-2.28;90.14;100520.39;1647078;86;26565;-79
2021/12/07 03:52:35;;;;;;;60.27;25.30;;;;;;;-2.37;90.04;100510.91;1647308;86;25897;-81
2021/12/07 03:55:05;;;;;;;51.48;22.35;;;;;;;-2.31;90.24;100515.37;1657258;85;27461;-79
2021/12/07 03:57:32;;;;;;;56.45;23.92;;;;;;;-2.29;90.24;100516.10;1647805;85;25892;-80
2021/12/07 04:00:00;;;;;;;61.98;22.85;;;;;;;-2.29;90.23;100517.41;1649271;85;25890;-79
2021/12/07 04:02:27;;;;;;;59.88;25.55;;;;;;;-2.31;90.17;100516.69;1647146;86;25392;-80
2021/12/07 04:05:00;;;;;;;61.05;24.90;;;;;;;-2.36;90.17;100510.45;1656273;86;26401;-80
2021/12/07 04:07:21;;;;;;;62.30;22.95;;;;;;;-2.37;90.19;100510.91;1657162;85;27483;-79
2021/12/07 04:09:48;;;;;;;57.35;24.55;;;;;;;-2.43;90.14;100502.63;1660416;86;26179;-80
2021/12/07 04:12:15;;;;;;;65.42;26.95;;;;;;;-2.39;90.80;100517.20;1656258;86;26467;-79
2021/12/07 04:14:41;;;;;;;60.60;24.43;;;;;;;-2.41;90.46;100511.23;1669024;84;26546;-79
2021/12/07 04:17:08;;;;;;;63.80;27.58;;;;;;;-2.39;90.46;100527.23;1666624;85;25852;-79
2021/12/07 04:19:34;;;;;;;67.40;26.23;;;;;;;-2.38;90.46;100532.01;1666131;85;28157;-79
2021/12/07 04:22:00;;;;;;;58.00;23.20;;;;;;;-2.39;90.44;100538.19;1666945;84;26076;-79
2021/12/07 04:24:27;;;;;;;54.70;24.05;;;;;;;-2.43;90.57;100539.34;1665822;85;25760;-82
2021/12/07 04:26:55;;;;;;;68.07;27.50;;;;;;;-2.43;90.57;100539.34;1666726;85;25863;-80
2021/12/07 04:29:22;;;;;;;61.28;26.82;;;;;;;-2.41;90.63;100547.94;1666877;85;25823;-79
2021/12/07 04:31:48;;;;;;;61.55;26.95;;;;;;;-2.39;90.60;100548.67;1666808;85;28370;-79
2021/12/07 04:34:15;;;;;;;72.58;28.47;;;;;;;-2.36;90.84;100548.02;1666165;85;25278;-80
2021/12/07 04:36:41;;;;;;;61.65;24.35;;;;;;;-2.33;90.65;100549.55;1666105;85;25979;-78
2021/12/07 04:39:09;;;;;;;68.55;25.90;;;;;;;-2.31;90.32;100551.63;1665014;85;25903;-79
2021/12/07 04:41:35;;;;;;;63.35;25.82;;;;;;;-2.31;90.49;100551.63;1660885;85;25910;-79
2021/12/07 04:44:04;;;;;;;75.20;25.57;;;;;;;-2.28;90.46;100553.17;1665592;85;27454;-79
2021/12/07 04:46:47;;;;;;;61.92;27.98;;;;;;;-2.28;90.36;100555.80;1666323;85;25747;-78
2021/12/07 05:00:03;;;;;;;66.75;25.65;;;;;;;-2.35;90.43;100554.92;1653980;86;25928;-80
2021/12/07 05:02:28;;;;;;;66.45;27.25;;;;;;;-2.37;90.30;100554.19;1650591;86;25804;-79
2021/12/07 05:04:55;;;;;;;63.38;23.42;;;;;;;-2.37;89.98;100556.81;1658016;85;26550;-80
2021/12/07 05:07:32;;;;;;;67.37;25.00;;;;;;;-2.37;90.41;100561.21;1652806;86;25831;-78
2021/12/07 05:12:52;;;;;;;62.65;25.20;;;;;;;-2.33;90.50;100555.30;1629089;87;25978;-79
2021/12/07 05:15:16;;;;;;;70.28;27.10;;;;;;;-2.29;90.54;100562.01;1669310;84;25728;-79
2021/12/07 05:39:30;;;;;;;56.50;21.95;;;;;;;-2.32;90.34;100571.39;1663145;86;25855;-80
2021/12/07 05:41:57;;;;;;;59.23;24.52;;;;;;;-2.33;90.39;100578.41;1662932;85;25957;-81
2021/12/07 05:44:23;;;;;;;62.40;26.30;;;;;;;-2.28;90.61;100577.63;1661444;86;26332;-80
2021/12/07 05:46:49;;;;;;;62.78;23.73;;;;;;;-2.28;90.61;100577.63;1662983;84;25907;-80
2021/12/07 05:49:16;;;;;;;62.95;25.15;;;;;;;-2.24;90.57;100576.47;1664061;84;27455;-80
2021/12/07 05:51:42;;;;;;;63.13;23.73;;;;;;;-2.26;90.23;100574.89;1670851;84;26094;-82
2021/12/07 05:54:08;;;;;;;66.53;25.82;;;;;;;-2.32;90.29;100565.67;1666090;84;25800;-79
2021/12/07 05:56:35;;;;;;;59.25;23.90;;;;;;;-2.23;90.43;100582.10;1663417;85;26538;-79
2021/12/07 05:59:01;;;;;;;58.48;25.68;;;;;;;-2.21;90.48;100574.11;1663421;85;26034;-81
2021/12/07 06:01:27;;;;;;;57.75;24.75;;;;;;;-2.21;90.33;100572.80;1662567;86;27477;-80
2021/12/07 06:03:53;;;;;;;58.60;23.35;;;;;;;-2.18;90.44;100569.98;1657747;86;25815;-81
2021/12/07 06:06:20;;;;;;;64.20;22.75;;;;;;;-2.17;90.37;100586.91;1663085;86;25833;-82
2021/12/07 06:08:46;;;;;;;61.40;24.40;;;;;;;-2.16;90.40;100581.20;1663834;85;26481;-80
2021/12/07 06:11:13;;;;;;;57.25;22.37;;;;;;;-2.16;90.30;100582.02;1664095;85;25853;-81
2021/12/07 06:13:39;;;;;;;59.27;22.58;;;;;;;-2.16;90.08;100585.14;1663503;85;27462;-81
2021/12/07 06:16:07;;;;;;;51.68;22.05;;;;;;;-2.19;89.99;100583.56;1663389;86;26660;-81
2021/12/07 06:18:35;;;;;;;53.42;22.10;;;;;;;-2.23;90.04;100578.16;1663754;86;25314;-81
2021/12/07 06:21:03;;;;;;;56.60;21.52;;;;;;;-2.27;90.03;100575.39;1664092;85;26992;-80
2021/12/07 06:23:29;;;;;;;50.33;20.77;;;;;;;-2.32;90.21;100564.83;1668364;84;25745;-80
2021/12/07 06:25:57;;;;;;;54.73;21.62;;;;;;;-2.29;90.15;100574.66;1664971;84;28292;-81
2021/12/07 06:28:23;;;;;;;54.93;22.25;;;;;;;-2.36;90.09;100570.30;1664053;85;25796;-81
2021/12/07 06:30:49;;;;;;;58.70;22.05;;;;;;;-2.29;90.21;100582.99;1664487;85;25707;-80
2021/12/07 06:33:20;;;;;;;53.48;22.37;;;;;;;-2.37;90.01;100576.48;1663611;85;25934;-81
2021/12/07 06:35:49;;;;;;;54.60;21.60;;;;;;;-2.29;90.33;100588.24;1656445;86;25928;-81
2021/12/07 06:38:22;;;;;;;53.78;21.93;;;;;;;-2.29;90.23;100586.93;1659481;86;27544;-81
2021/12/07 06:40:45;;;;;;;60.40;24.53;;;;;;;-2.32;90.21;100585.35;1661502;86;25310;-80
2021/12/07 06:43:11;;;;;;;57.43;21.97;;;;;;;-2.30;90.42;100586.08;1661532;86;25922;-81
2021/12/07 06:45:37;;;;;;;63.83;24.02;;;;;;;-2.26;90.54;100587.55;1658827;86;25760;-81
2021/12/07 06:48:04;;;;;;;49.58;22.07;;;;;;;-2.28;89.86;100578.95;1661055;86;25905;-81
2021/12/07 06:50:30;;;;;;;54.42;24.23;;;;;;;-2.28;89.86;100578.95;1632579;86;27449;-81
2021/12/07 06:52:56;;;;;;;55.65;23.00;;;;;;;-2.33;90.19;100573.66;1657307;86;25300;-81
2021/12/07 06:55:23;;;;;;;59.45;24.85;;;;;;;-2.28;90.15;100580.72;1662094;85;26178;-80
2021/12/07 06:57:50;;;;;;;53.78;20.75;;;;;;;-2.27;90.17;100583.73;1658760;86;25819;-81
2021/12/07 07:00:18;;;;;;;47.62;22.05;;;;;;;-2.26;90.16;100586.70;1662598;85;25750;-80
2021/12/07 07:02:44;;;;;;;49.98;20.10;;;;;;;-2.34;90.12;100578.06;1662245;86;28297;-80
2021/12/07 07:05:11;;;;;;;57.03;21.93;;;;;;;-2.25;90.19;100594.48;1662467;84;25856;-81
2021/12/07 07:07:39;;;;;;;51.33;21.73;;;;;;;-2.24;90.13;100596.61;1662431;86;25341;-81
2021/12/07 07:10:08;;;;;;;52.23;21.55;;;;;;;-2.26;90.07;100599.81;1663580;86;25794;-80
2021/12/07 07:12:35;;;;;;;50.95;20.92;;;;;;;-2.28;90.03;100605.18;1662698;86;26466;-80
2021/12/07 07:15:02;;;;;;;50.08;22.05;;;;;;;-2.32;89.88;100608.96;1662533;86;27182;-81
2021/12/07 07:17:28;;;;;;;49.70;19.20;;;;;;;-2.35;89.96;100607.38;1662535;85;25661;-80
2021/12/07 07:19:54;;;;;;;43.20;18.37;;;;;;;-2.32;90.10;100610.73;1659001;86;25866;-80
2021/12/07 07:22:20;;;;;;;47.53;19.77;;;;;;;-2.32;89.93;100598.47;1659430;85;26182;-80
2021/12/07 07:24:47;;;;;;;52.83;20.62;;;;;;;-2.32;89.91;100598.93;1661918;86;26125;-80
2021/12/07 07:27:13;;;;;;;49.23;20.45;;;;;;;-2.32;90.07;100602.86;1659212;86;27419;-81
2021/12/07 07:29:39;;;;;;;46.33;18.92;;;;;;;-2.30;90.22;100600.97;1655512;85;26340;-80
2021/12/07 07:32:06;;;;;;;54.77;21.07;;;;;;;-2.28;90.18;100601.70;1661938;85;25885;-81
2021/12/07 07:34:33;;;;;;;55.78;22.82;;;;;;;-2.23;90.31;100611.42;1661370;86;26540;-81
2021/12/07 07:36:59;;;;;;;48.28;20.30;;;;;;;-2.22;90.50;100610.50;1663501;85;25812;-81
2021/12/07 07:39:25;;;;;;;42.17;17.98;;;;;;;-2.20;90.25;100617.78;1664871;86;28207;-80
2021/12/07 07:41:52;;;;;;;56.10;20.77;;;;;;;-2.23;89.82;100613.58;1665142;86;25781;-81
2021/12/07 07:44:18;;;;;;;50.70;21.25;;;;;;;-2.26;90.10;100613.78;1664719;86;25799;-80
2021/12/07 07:46:46;;;;;;;54.63;22.42;;;;;;;-2.26;89.91;100618.18;1663591;84;25896;-82
2021/12/07 07:49:12;;;;;;;54.03;22.35;;;;;;;-2.32;89.90;100612.89;1658940;85;25779;-80
2021/12/07 07:51:39;;;;;;;51.45;22.75;;;;;;;-2.29;90.01;100614.48;1668897;85;27475;-80
2021/12/07 07:54:06;;;;;;;60.12;24.18;;;;;;;-2.23;90.13;100628.02;1668470;85;26011;-80
2021/12/07 07:56:33;;;;;;;47.75;20.12;;;;;;;-2.22;90.03;100630.17;1668745;84;25890;-81
2021/12/07 07:59:00;;;;;;;52.08;22.17;;;;;;;-2.18;90.05;100631.14;1669083;85;26606;-81
2021/12/07 08:01:31;;;;;;;48.95;20.35;;;;;;;-2.16;89.96;100640.24;1669100;85;25887;-80
2021/12/07 08:04:00;;;;;;;50.92;20.27;;;;;;;-2.16;89.93;100633.19;1668860;85;28291;-80
2021/12/07 08:06:27;;;;;;;51.33;21.20;;;;;;;-2.18;89.71;100639.02;1669100;85;26000;-80
2021/12/07 08:08:53;;;;;;;48.52;19.32;;;;;;;-2.22;89.42;100634.92;1669250;85;25300;-80
2021/12/07 08:11:22;;;;;;;43.95;18.12;;;;;;;-2.23;89.59;100642.91;1669302;85;25840;-81
2021/12/07 08:13:48;;;;;;;45.50;19.07;;;;;;;-2.25;89.42;100646.95;1669049;84;26008;-81
2021/12/07 08:16:17;;;;;;;48.00;18.73;;;;;;;-2.26;89.47;100646.58;1669313;85;28497;-80
2021/12/07 08:18:46;;;;;;;47.03;19.87;;;;;;;-2.25;89.49;100644.80;1669166;85;25771;-80
2021/12/07 08:21:14;;;;;;;48.25;21.20;;;;;;;-2.25;89.66;100658.77;1669502;85;26538;-80
2021/12/07 08:23:41;;;;;;;50.33;20.80;;;;;;;-2.19;89.83;100653.55;1666182;85;26672;-80
2021/12/07 08:26:11;;;;;;;44.70;19.77;;;;;;;-2.15;89.82;100657.18;1669285;85;26643;-80
2021/12/07 08:28:37;;;;;;;50.45;20.97;;;;;;;-2.11;89.85;100661.27;1668778;85;28438;-80
2021/12/07 08:31:04;;;;;;;46.50;20.37;;;;;;;-2.05;89.64;100669.22;1668940;85;25822;-81
2021/12/07 08:33:32;;;;;;;41.90;18.05;;;;;;;-2.05;89.64;100669.22;1668954;85;25822;-81
2021/12/07 08:36:00;;;;;;;48.68;20.92;;;;;;;-2.03;89.44;100668.63;1669472;85;25868;-80
2021/12/07 08:38:27;;;;;;;41.53;18.05;;;;;;;-2.02;89.27;100670.30;1669169;85;26497;-80
2021/12/07 08:40:54;;;;;;;44.30;19.98;;;;;;;-2.04;89.31;100671.73;1669388;84;27433;-80
2021/12/07 08:43:26;;;;;;;40.23;18.50;;;;;;;-2.02;89.22;100672.45;1667586;85;25876;-80
2021/12/07 08:45:54;;;;;;;42.00;18.00;;;;;;;-2.01;89.20;100674.13;1669343;85;26303;-80
2021/12/07 08:48:21;;;;;;;48.68;20.40;;;;;;;-1.99;89.22;100688.47;1669209;85;25882;-80
2021/12/07 08:50:48;;;;;;;39.27;18.23;;;;;;;-2.00;89.08;100689.41;1669208;85;25832;-81
2021/12/07 08:53:19;;;;;;;40.73;16.82;;;;;;;-1.99;88.88;100692.41;1669191;84;27542;-80
2021/12/07 09:01:21;;;;;;;43.28;20.25;;;;;;;-1.99;88.73;100687.98;1668334;84;25850;-80
2021/12/07 09:03:50;;;;;;;44.85;18.80;;;;;;;-1.97;89.05;100697.92;1669363;85;26592;-80
2021/12/07 09:06:17;;;;;;;40.17;17.70;;;;;;;-1.94;89.16;100699.48;1665820;85;27494;-81
2021/12/07 09:08:44;;;;;;;39.15;16.80;;;;;;;-1.93;88.87;100696.77;1668446;85;25895;-80
2021/12/07 09:11:13;;;;;;;43.85;19.25;;;;;;;-1.91;88.82;100697.97;1666988;85;26060;-81
2021/12/07 09:13:40;;;;;;;41.83;18.85;;;;;;;-1.93;88.76;100705.11;1664034;85;25740;-80
2021/12/07 09:16:09;;;;;;;44.40;18.70;;;;;;;-1.91;88.87;100701.44;1660609;85;25991;-80
2021/12/07 09:18:36;;;;;;;47.25;19.55;;;;;;;-1.88;88.80;100706.45;1666598;85;27599;-81
2021/12/07 09:21:04;;;;;;;45.08;19.55;;;;;;;-1.86;88.73;100691.94;1666413;85;25351;-80
2021/12/07 09:23:31;;;;;;;40.92;19.32;;;;;;;-1.81;89.00;100686.72;1658202;85;26070;-80
2021/12/07 09:25:57;;;;;;;42.58;19.62;;;;;;;-1.76;88.65;100689.88;1665312;85;26641;-80
2021/12/07 09:28:23;;;;;;;47.35;20.90;;;;;;;-1.73;88.86;100691.43;1667231;85;25309;-80
2021/12/07 09:30:53;;;;;;;42.83;18.87;;;;;;;-1.67;89.01;100686.59;1669083;85;28417;-80
2021/12/07 09:33:26;;;;;;;41.42;18.85;;;;;;;-1.65;88.68;100687.32;1669186;84;25955;-80
2021/12/07 09:35:54;;;;;;;40.48;17.60;;;;;;;-1.64;88.43;100681.14;1669853;85;25508;-80
2021/12/07 09:38:23;;;;;;;38.53;18.70;;;;;;;-1.63;88.44;100678.05;1669489;84;26329;-81
2021/12/07 09:40:53;;;;;;;38.38;18.15;;;;;;;-1.61;88.76;100682.72;1669678;85;25992;-81
2021/12/07 09:43:19;;;;;;;44.70;18.77;;;;;;;-1.59;88.40;100680.36;1668402;85;27528;-79
2021/12/07 09:45:46;;;;;;;41.33;17.57;;;;;;;-1.57;88.23;100678.92;1668385;84;26381;-79
2021/12/07 09:48:13;;;;;;;39.10;17.52;;;;;;;-1.61;87.96;100674.84;1668516;85;25366;-79
2021/12/07 09:50:44;;;;;;;37.80;17.57;;;;;;;-1.62;88.09;100678.39;1662144;85;25952;-81
2021/12/07 09:53:14;;;;;;;45.15;19.20;;;;;;;-1.65;87.98;100670.25;1657704;84;26571;-83
2021/12/07 09:55:42;;;;;;;39.47;18.47;;;;;;;-1.61;88.53;100668.27;1664064;84;27529;-83
2021/12/07 09:58:09;;;;;;;40.40;19.73;;;;;;;-1.57;88.38;100664.02;1662351;84;25731;-83
2021/12/07 10:00:38;;;;;;;41.85;19.73;;;;;;;-1.57;88.20;100661.85;1662266;84;26077;-83
2021/12/07 10:03:05;;;;;;;36.13;17.10;;;;;;;-1.53;88.22;100664.63;1661401;84;25984;-83
2021/12/07 10:05:34;;;;;;;33.00;15.85;;;;;;;-1.53;87.79;100666.41;1647438;86;25664;-83
2021/12/07 10:08:03;;;;;;;35.15;17.23;;;;;;;-1.57;87.61;100669.73;1645488;85;27432;-84
2021/12/07 10:10:38;;;;;;;36.83;17.00;;;;;;;-1.58;87.59;100670.20;1645999;86;25614;-83
2021/12/07 10:13:07;;;;;;;33.28;15.93;;;;;;;-1.60;87.45;100665.53;1652868;84;25645;-84
2021/12/07 10:15:34;;;;;;;37.73;16.75;;;;;;;-1.60;87.37;100666.84;1656032;84;25837;-83
2021/12/07 10:18:17;;;;;;;35.33;16.40;;;;;;;-1.61;87.65;100662.55;1648283;86;26675;-83
2021/12/07 10:20:49;;;;;;;35.20;17.37;;;;;;;-1.58;87.71;100657.53;1645955;86;27624;-83
2021/12/07 10:23:20;;;;;;;34.43;17.35;;;;;;;-1.59;87.59;100655.88;1648114;86;26000;-84
2021/12/07 10:25:55;;;;;;;42.65;19.42;;;;;;;-1.61;87.50;100658.61;1648474;85;25854;-83
2021/12/07 10:28:48;;;;;;;34.10;15.32;;;;;;;-1.58;87.87;100653.13;1650020;85;25831;-83
2021/12/07 10:31:21;;;;;;;37.65;18.10;;;;;;;-1.54;87.77;100656.86;1650204;86;25398;-83
2021/12/07 10:34:05;;;;;;;34.83;16.85;;;;;;;-1.53;87.64;100655.89;1649840;86;28303;-82
2021/12/07 10:36:45;;;;;;;41.33;17.25;;;;;;;-1.52;87.35;100652.34;1648885;85;25864;-83
2021/12/07 10:39:25;;;;;;;33.15;16.10;;;;;;;-1.52;87.28;100654.50;1648931;85;25804;-82
2021/12/07 10:42:03;;;;;;;32.15;15.53;;;;;;;-1.47;87.65;100651.05;1649370;86;25959;-81
2021/12/07 10:44:33;;;;;;;30.75;15.03;;;;;;;-1.45;87.19;100654.41;1649274;86;25900;-81
2021/12/07 10:47:09;;;;;;;29.52;14.50;;;;;;;-1.44;86.95;100653.47;1649221;86;33855;-81
2021/12/07 10:49:51;;;;;;;24.80;12.55;;;;;;;-1.41;86.76;100649.80;1642846;86;25682;-81
2021/12/07 10:52:29;;;;;;;30.68;14.00;;;;;;;-1.46;86.40;100649.27;1639688;84;25867;-81
2021/12/07 10:55:10;;;;;;;33.00;14.60;;;;;;;-1.48;86.49;100652.02;1641292;86;25793;-82
2021/12/07 10:57:58;;;;;;;29.15;13.70;;;;;;;-1.45;86.46;100647.84;1638574;86;25947;-83
2021/12/07 11:00:36;;;;;;;44.95;26.37;;;;;;;-1.38;86.73;100653.03;1637341;87;28429;-82
2021/12/07 11:03:11;;;;;;;38.73;17.75;;;;;;;-1.30;86.95;100650.69;1635980;86;25318;-82
2021/12/07 11:05:43;;;;;;;38.17;16.32;;;;;;;-1.21;87.14;100652.66;1635621;86;25792;-80
2021/12/07 11:08:11;;;;;;;31.95;15.23;;;;;;;-1.15;86.77;100655.30;1636803;87;25833;-80
2021/12/07 11:10:43;;;;;;;31.37;15.90;;;;;;;-1.12;86.82;100648.52;1641597;86;25793;-84
2021/12/07 11:13:24;;;;;;;32.67;15.00;;;;;;;-1.09;86.29;100650.44;1630267;87;27488;-84
2021/12/07 11:16:01;;;;;;;35.63;16.77;;;;;;;-1.07;85.87;100648.54;1635479;87;25383;-84
2021/12/07 11:18:35;;;;;;;36.53;17.60;;;;;;;-1.02;86.38;100653.47;1634113;86;26034;-85
2021/12/07 11:21:10;;;;;;;30.35;13.65;;;;;;;-0.96;86.32;100657.80;1637120;87;25850;-85
2021/12/07 11:23:44;;;;;;;25.23;12.60;;;;;;;-0.94;85.96;100661.66;1637936;86;25904;-84
2021/12/07 11:31:50;;;;;;;36.42;17.23;;;;;;;-1.02;85.27;100663.98;1633712;86;25820;-81
2021/12/07 11:34:21;;;;;;;31.42;14.78;;;;;;;-1.12;85.06;100670.39;1645506;85;26577;-81
2021/12/07 11:36:58;;;;;;;34.23;16.87;;;;;;;-1.20;84.94;100672.74;1643539;85;28183;-84
2021/12/07 11:39:47;;;;;;;32.78;15.83;;;;;;;-1.24;85.13;100671.75;1634967;86;27528;-84
2021/12/07 11:42:22;;;;;;;32.98;15.23;;;;;;;-1.26;85.05;100680.23;1633273;86;25358;-82
2021/12/07 11:45:04;;;;;;;31.95;15.05;;;;;;;-1.29;85.02;100677.80;1644490;85;26264;-81
2021/12/07 11:47:41;;;;;;;34.30;16.10;;;;;;;-1.34;84.62;100674.19;1637203;87;26601;-83
2021/12/07 11:50:37;;;;;;;27.73;13.35;;;;;;;-1.41;84.67;100680.00;1635666;86;25746;-80
2021/12/07 11:53:11;;;;;;;31.00;15.58;;;;;;;-1.47;84.95;100685.20;1673296;84;27452;-83
2021/12/07 11:55:42;;;;;;;31.50;15.20;;;;;;;-1.51;84.96;100682.42;1675398;84;25962;-79
2021/12/07 11:58:11;;;;;;;32.55;14.98;;;;;;;-1.53;85.16;100681.70;1672881;85;26538;-81
2021/12/07 12:00:42;;;;;;;33.95;16.73;;;;;;;-1.51;85.31;100685.52;1653408;85;26318;-82
2021/12/07 12:03:12;;;;;;;32.00;15.10;;;;;;;-1.51;85.43;100695.56;1674632;85;26413;-83
2021/12/07 12:05:42;;;;;;;34.58;16.35;;;;;;;-1.50;85.39;100695.09;1673528;84;27447;-81
2021/12/07 12:08:13;;;;;;;23.57;10.78;;;;;;;-1.48;85.67;100687.48;1674196;84;25906;-80
2021/12/07 12:10:47;;;;;;;25.43;12.93;;;;;;;-1.45;84.64;100690.36;1674301;84;26541;-77
2021/12/07 12:13:50;;;;;;;25.70;12.73;;;;;;;-1.50;84.72;100690.69;1671675;84;25936;-80
2021/12/07 12:16:44;;;;;;;23.27;12.00;;;;;;;-1.50;84.75;100702.97;1671910;85;26068;-80
2021/12/07 12:19:42;;;;;;;25.88;12.65;;;;;;;-1.56;84.22;100702.44;1663825;85;27472;-80
2021/12/07 12:22:14;;;;;;;29.50;11.75;;;;;;;-1.56;84.33;100705.53;1674639;85;25933;-80
2021/12/07 12:24:51;;;;;;;25.37;12.65;;;;;;;-1.60;84.26;100708.86;1674440;85;25778;-80
2021/12/07 12:27:25;;;;;;;29.65;13.90;;;;;;;-1.59;84.45;100709.24;1675066;85;26584;-80
2021/12/07 12:29:55;;;;;;;29.55;14.70;;;;;;;-1.54;84.84;100702.36;1674057;85;25285;-81
2021/12/07 12:32:35;;;;;;;29.85;13.85;;;;;;;-1.47;84.87;100700.96;1674372;85;45620;-81
2021/12/07 12:35:05;;;;;;;24.55;12.53;;;;;;;-1.44;84.51;100699.45;1672337;85;25895;-83
2021/12/07 12:37:33;;;;;;;30.12;15.88;;;;;;;-1.41;84.67;100703.15;1680243;81;28976;-81
2021/12/07 12:40:14;;;;;;;26.37;12.60;;;;;;;-1.36;84.94;100708.08;1671368;84;26001;-80
2021/12/07 12:42:45;;;;;;;28.12;13.43;;;;;;;-1.30;84.72;100710.27;1666752;85;26349;-81
2021/12/07 12:45:28;;;;;;;;;;;;;;;-1.30;84.32;100700.61;1708014;83;27451;-81
2021/12/07 12:48:02;;;;;;;27.50;12.90;;;;;;;-1.30;84.54;100702.39;1720367;83;25840;-81
2021/12/07 12:50:43;;;;;;;29.95;13.53;;;;;;;-1.28;84.60;100705.77;1720414;83;25629;-80
2021/12/07 12:53:15;;;;;;;;;;;;;;;-1.25;84.50;100699.81;1715690;81;25917;-81
2021/12/07 12:55:49;;;;;;;24.80;12.25;;;;;;;-1.29;83.88;100709.34;1686917;83;27107;-81
2021/12/07 12:58:20;;;;;;;35.85;16.20;;;;;;;-1.37;84.04;100707.27;1715511;81;28112;-81
2021/12/07 13:01:10;;;;;;;31.20;15.23;;;;;;;-1.44;83.92;100703.85;1720654;81;26142;-80
2021/12/07 13:03:56;;;;;;;30.95;14.23;;;;;;;-1.45;84.01;100704.81;1712851;83;25744;-81
2021/12/07 13:06:46;;;;;;;28.62;14.55;;;;;;;-1.48;84.27;100708.48;1718931;82;25945;-80
2021/12/07 13:09:22;;;;;;;28.62;14.40;;;;;;;-1.48;84.29;100707.64;1709447;83;25776;-78